KTBX

Boysen Reservoir

Boysen Reservoir, Wyoming, USA
METAR KTBX 191355Z AUTO 29005KT 10SM CLR 00/M08 A3000 RMK AO2
Observed Flight Rules
Dec-19 @ 13:55 UTC (11 minutes ago) Visual Flight Rules
Wind Visibility Clouds
290° at 5 knots 10 miles
  • Clear skies
Temperatures Readings
Current 0°C / 32°F
Dewpoint -8°C / 18°F
Humidity 55%
Altimeter 30" Hg
Pressure 1016 hPa
Elevation 2225
METAR KTBX 191355Z AUTO 29005KT 10SM CLR 00/M08 A3000 RMK AO2
Observed Flight Rules
Dec-19 @ 13:55 UTC
(11 minutes ago)
VFR
Wind Visibility
290° at 5 knots 10 miles
Clouds
  • Clear skies
Temperature Dewpoint
0°C / 32°F -8°C / 18°F
Humidity Altimeter Pressure
55% 30" Hg 1016 hPa